Terminal Aerodrome Forecast
Issued by NWS

Home | Current Version | Previous Version | Text Only | Print | Product List | Glossary On
Versions: 1 2 3 4 5 6 7 8 9 10 11 12 13 14
000
FTUS41 KPHI 010500
TAFMIV
TAF
KMIV 010520Z 0106/0206 VRB02KT P6SM FEW060 BKN200
      TEMPO 0107/0111 3SM BR
     FM011300 17005KT P6SM SCT050 BKN200
     FM020000 VRB03KT P6SM OVC050
     FM020300 09003KT 5SM SHRA BR OVC050=

USA.gov is the U.S. government's official web portal to all federal, state and local government web resources and services.